createdAt,value
2023-05-09T00:00:01.002Z,81.2
2023-05-09T00:05:01.142Z,81.4
2023-05-09T00:10:01.096Z,78.6
2023-05-09T00:15:01.256Z,75.9
2023-05-09T00:20:01.015Z,74.3
2023-05-09T00:25:01.078Z,75.9
2023-05-09T00:30:00.994Z,74.1
2023-05-09T00:35:01.201Z,74.0
2023-05-09T00:40:00.994Z,59.5
2023-05-09T00:45:01.088Z,59.7
2023-05-09T00:50:02.003Z,60.6
2023-05-09T00:55:01.189Z,59.3
2023-05-09T01:00:00.998Z,60.4
2023-05-09T01:05:01.079Z,72.3
2023-05-09T01:10:01.011Z,70.1
2023-05-09T01:15:01.319Z,68.1
2023-05-09T01:20:00.977Z,71.2
2023-05-09T01:25:01.117Z,73.1
2023-05-09T01:40:01.748Z,61.2
2023-05-09T01:45:01.581Z,62.6
2023-05-09T01:50:01.506Z,66.1
2023-05-09T01:55:01.516Z,71.4
2023-05-09T02:00:01.560Z,76.2
2023-05-09T02:05:01.497Z,81.9
2023-05-09T02:10:06.503Z,86.8
2023-05-09T02:15:01.518Z,88.8
2023-05-09T02:20:01.625Z,88.5
2023-05-09T02:25:01.517Z,86.5
2023-05-09T02:30:01.423Z,85.2
2023-05-09T02:35:01.601Z,84.0
2023-05-09T02:40:01.641Z,85.3
2023-05-09T02:45:01.979Z,85.6
2023-05-09T02:50:02.464Z,85.0
2023-05-09T03:00:01.608Z,85.2
2023-05-09T03:05:01.530Z,79.1
2023-05-09T03:10:01.390Z,77.3
2023-05-09T03:15:01.532Z,76.6
2023-05-09T03:20:04.019Z,66.0
2023-05-09T03:25:01.450Z,66.2
2023-05-09T03:30:06.381Z,70.6
2023-05-09T03:35:01.471Z,72.4
2023-05-09T03:40:01.508Z,74.6
2023-05-09T03:45:01.462Z,87.1
2023-05-09T03:50:01.366Z,89.3
2023-05-09T03:55:01.497Z,91.1
2023-05-09T04:00:01.493Z,92.0
2023-05-09T04:05:01.491Z,85.9
2023-05-09T04:10:01.360Z,86.0
2023-05-09T04:15:01.466Z,86.0
2023-05-09T04:20:01.376Z,86.6
2023-05-09T04:25:01.412Z,87.0
2023-05-09T04:30:01.340Z,93.8
2023-05-09T04:35:01.488Z,92.8
2023-05-09T04:40:01.614Z,93.0
2023-05-09T04:45:01.482Z,93.1
2023-05-09T04:50:01.349Z,94.0
2023-05-09T04:55:01.399Z,94.4
2023-05-09T05:00:01.507Z,95.2
2023-05-09T05:10:01.455Z,94.8
2023-05-09T05:15:01.384Z,94.8
2023-05-09T05:25:01.563Z,96.0
2023-05-09T05:30:01.309Z,97.6
2023-05-09T05:35:06.555Z,102.2
2023-05-09T05:40:06.431Z,103.3
2023-05-09T05:45:01.382Z,103.9
2023-05-09T05:50:01.296Z,103.3
2023-05-09T05:55:01.442Z,101.2
2023-05-09T06:00:01.422Z,96.4
2023-05-09T06:05:01.420Z,95.2
2023-05-09T06:10:01.300Z,94.6
2023-05-09T06:15:01.519Z,94.1
2023-05-09T06:20:01.469Z,93.4
2023-05-09T06:25:01.386Z,93.2
2023-05-09T06:30:02.761Z,92.8
2023-05-09T06:35:01.298Z,92.4
2023-05-09T06:40:01.428Z,93.1
2023-05-09T06:45:01.334Z,91.3
2023-05-09T06:50:01.352Z,94.3
2023-05-09T06:55:01.373Z,97.6
2023-05-09T07:00:01.489Z,103.7
2023-05-09T07:05:01.458Z,108.2
2023-05-09T07:10:10.249Z,118.8
2023-05-09T07:15:01.323Z,126.2
2023-05-09T07:20:01.378Z,129.4
2023-05-09T07:25:01.385Z,132.2
2023-05-09T07:30:02.278Z,136.6
2023-05-09T07:35:02.299Z,142.8
2023-05-09T07:40:01.383Z,151.5
2023-05-09T07:45:01.291Z,158.5
2023-05-09T07:50:01.542Z,166.3
2023-05-09T07:55:01.321Z,170.4
2023-05-09T08:00:01.335Z,167.7
2023-05-09T08:05:01.291Z,163.6
2023-05-09T08:10:01.207Z,163.5
2023-05-09T08:15:01.334Z,172.2
2023-05-09T08:20:01.332Z,171.6
2023-05-09T08:25:01.339Z,177.6
2023-05-09T08:30:01.229Z,180.6
2023-05-09T08:35:01.287Z,200.1
2023-05-09T08:40:01.315Z,198.1
2023-05-09T08:45:01.325Z,221.9
2023-05-09T08:50:02.696Z,243.2
2023-05-09T08:55:01.354Z,259.8
2023-05-09T09:00:01.353Z,267.2
2023-05-09T09:05:06.814Z,281.8
2023-05-09T09:10:01.156Z,282.4
2023-05-09T09:15:01.301Z,281.8
2023-05-09T09:20:01.289Z,286.5
2023-05-09T09:25:01.226Z,272.6
2023-05-09T09:30:01.190Z,272.9
2023-05-09T09:35:01.332Z,274.5
2023-05-09T09:40:01.323Z,275.0
2023-05-09T09:45:01.319Z,276.2
2023-05-09T09:50:01.735Z,291.7
2023-05-09T10:10:01.778Z,287.6
2023-05-09T10:15:01.633Z,284.8
2023-05-09T10:20:01.563Z,284.7
2023-05-09T10:25:01.685Z,279.1
2023-05-09T10:30:01.753Z,275.9
2023-05-09T10:50:01.303Z,245.6
2023-05-09T10:55:01.598Z,243.9
2023-05-09T11:00:01.037Z,240.2
2023-05-09T11:05:01.174Z,238.1
2023-05-09T11:20:01.666Z,192.4
2023-05-09T11:25:01.568Z,185.9
2023-05-09T11:30:01.491Z,184.0
2023-05-09T11:35:01.545Z,179.4
2023-05-09T11:40:01.566Z,172.2
2023-05-09T11:45:01.631Z,164.6
2023-05-09T11:50:01.566Z,159.5
2023-05-09T11:55:01.859Z,153.1
2023-05-09T12:00:01.444Z,149.0
2023-05-09T12:10:01.540Z,147.3
2023-05-09T12:15:01.472Z,146.1
2023-05-09T12:20:01.530Z,145.8
2023-05-09T12:25:01.463Z,147.1
2023-05-09T12:30:01.395Z,148.4
2023-05-09T12:35:01.528Z,151.5
2023-05-09T12:40:01.510Z,152.3
2023-05-09T12:45:01.514Z,155.6
2023-05-09T12:50:01.382Z,158.7
2023-05-09T12:55:01.450Z,160.0
2023-05-09T13:00:01.497Z,163.1
2023-05-09T13:05:01.435Z,189.3
2023-05-09T13:10:01.378Z,194.8
2023-05-09T13:15:01.551Z,196.9
2023-05-09T13:20:01.480Z,205.0
2023-05-09T13:25:01.489Z,208.7
2023-05-09T13:30:01.353Z,199.7
2023-05-09T13:35:01.421Z,211.2
2023-05-09T13:40:01.574Z,228.0
2023-05-09T13:45:01.407Z,242.0
2023-05-09T13:50:01.347Z,255.3
2023-05-09T13:55:01.462Z,259.5
2023-05-09T14:00:01.472Z,262.3
2023-05-09T14:05:01.498Z,261.1
2023-05-09T14:10:11.290Z,258.7
2023-05-09T14:15:01.477Z,259.2
2023-05-09T14:20:01.374Z,260.8
2023-05-09T14:25:01.385Z,263.8
2023-05-09T14:30:01.335Z,266.3
2023-05-09T14:35:01.430Z,270.2
2023-05-09T14:40:01.432Z,273.7
2023-05-09T14:45:01.379Z,271.8
2023-05-09T14:50:01.342Z,271.6
2023-05-09T14:55:01.435Z,275.4
2023-05-09T15:00:09.156Z,278.2
2023-05-09T15:05:01.380Z,279.9
2023-05-09T15:10:01.289Z,276.4
2023-05-09T15:15:01.364Z,261.2
2023-05-09T15:20:01.426Z,244.6
2023-05-09T15:25:02.932Z,224.3
2023-05-09T15:30:01.360Z,206.2
2023-05-09T15:35:01.408Z,205.3
2023-05-09T15:40:01.415Z,214.2
2023-05-09T15:45:01.409Z,222.7
2023-05-09T15:50:01.366Z,233.2
2023-05-09T15:55:01.367Z,247.0
2023-05-09T16:00:01.306Z,254.0
2023-05-09T16:05:01.328Z,259.0
2023-05-09T16:10:01.268Z,262.4
2023-05-09T16:15:01.384Z,268.8
2023-05-09T16:20:01.395Z,269.9
2023-05-09T16:25:01.388Z,268.9
2023-05-09T16:30:01.337Z,267.7
2023-05-09T16:35:01.477Z,267.4
2023-05-09T16:40:01.537Z,264.4
2023-05-09T16:45:01.443Z,262.6
2023-05-09T16:50:01.240Z,261.1
2023-05-09T16:55:01.387Z,261.0
2023-05-09T17:00:01.565Z,261.5
2023-05-09T17:05:01.360Z,261.2
2023-05-09T17:10:01.244Z,260.6
2023-05-09T17:15:01.377Z,260.2
2023-05-09T17:20:01.368Z,259.8
2023-05-09T17:25:01.322Z,253.6
2023-05-09T17:30:01.314Z,254.1
2023-05-09T17:35:01.272Z,251.6
2023-05-09T17:40:01.366Z,245.6
2023-05-09T17:45:01.339Z,241.1
2023-05-09T17:50:01.209Z,237.4
2023-05-09T17:55:01.303Z,226.0
2023-05-09T18:00:01.324Z,210.2
2023-05-09T18:05:01.312Z,198.9
2023-05-09T18:10:02.220Z,184.0
2023-05-09T18:15:01.240Z,173.4
2023-05-09T18:20:01.356Z,163.7
2023-05-09T18:25:01.294Z,162.4
2023-05-09T18:30:01.165Z,157.0
2023-05-09T18:35:01.234Z,156.5
2023-05-09T18:40:01.330Z,155.9
2023-05-09T18:45:01.226Z,156.4
2023-05-09T18:50:02.795Z,156.6
2023-05-09T18:55:01.266Z,164.7
2023-05-09T19:00:01.420Z,167.5
2023-05-09T19:05:01.413Z,176.1
2023-05-09T19:10:01.147Z,185.9
2023-05-09T19:15:01.205Z,193.8
2023-05-09T19:20:01.268Z,204.7
2023-05-09T19:25:01.347Z,212.1
2023-05-09T19:30:01.160Z,216.2
2023-05-09T19:35:01.230Z,217.2
2023-05-09T19:40:01.186Z,221.2
2023-05-09T19:45:01.212Z,218.3
2023-05-09T19:50:01.174Z,222.0
2023-05-09T20:00:01.238Z,222.4
2023-05-09T20:10:01.217Z,233.3
2023-05-09T20:15:01.271Z,241.6
2023-05-09T20:20:01.170Z,249.2
2023-05-09T20:25:01.204Z,257.6
2023-05-09T20:30:01.170Z,263.6
2023-05-09T20:35:01.267Z,265.2
2023-05-09T20:40:01.194Z,265.3
2023-05-09T20:45:01.246Z,266.2
2023-05-09T20:50:01.149Z,254.5
2023-05-09T21:00:01.325Z,256.2
2023-05-09T21:05:01.506Z,255.4
2023-05-09T21:10:01.139Z,251.2
2023-05-09T21:15:01.276Z,243.4
2023-05-09T21:20:01.171Z,245.8
2023-05-09T21:25:01.265Z,234.8
2023-05-09T21:30:01.201Z,223.8
2023-05-09T21:35:01.269Z,221.0
2023-05-09T21:40:02.145Z,216.1
2023-05-09T21:45:01.270Z,206.2
2023-05-09T21:50:01.166Z,201.7
2023-05-09T21:55:01.281Z,197.0
2023-05-09T22:00:01.320Z,186.4
2023-05-09T22:05:01.521Z,182.1
2023-05-09T22:15:01.232Z,181.4
2023-05-09T22:20:01.178Z,184.0
2023-05-09T22:25:01.296Z,186.4
2023-05-09T22:30:01.126Z,186.4
2023-05-09T22:35:01.275Z,191.5
2023-05-09T22:40:01.140Z,198.2
2023-05-09T22:45:01.227Z,194.8
2023-05-09T22:50:01.126Z,192.7
2023-05-09T22:55:01.189Z,200.9
2023-05-09T23:00:01.149Z,202.5
2023-05-09T23:05:01.276Z,204.1
2023-05-09T23:10:01.130Z,216.4
2023-05-09T23:20:01.291Z,224.8
2023-05-09T23:25:01.201Z,227.6
2023-05-09T23:30:01.216Z,216.2
2023-05-09T23:35:01.260Z,216.9
2023-05-09T23:40:01.172Z,207.4
2023-05-09T23:45:01.261Z,197.1
2023-05-09T23:50:06.176Z,188.6
2023-05-09T23:55:01.200Z,188.7
